sensor_id;sensor_type;location;lat;lon;timestamp;temperature;humidity
9919;DHT22;4998;51.024;13.828;2022-11-25T00:01:37;9.70;99.90
9919;DHT22;4998;51.024;13.828;2022-11-25T00:04:04;9.70;99.80
9919;DHT22;4998;51.024;13.828;2022-11-25T00:06:33;9.70;99.80
9919;DHT22;4998;51.024;13.828;2022-11-25T00:09:03;9.60;99.80
9919;DHT22;4998;51.024;13.828;2022-11-25T00:11:33;9.60;99.90
9919;DHT22;4998;51.024;13.828;2022-11-25T00:14:00;9.60;99.90
9919;DHT22;4998;51.024;13.828;2022-11-25T00:16:27;9.60;99.90
9919;DHT22;4998;51.024;13.828;2022-11-25T00:18:55;9.50;99.90
9919;DHT22;4998;51.024;13.828;2022-11-25T00:21:24;9.50;99.90
9919;DHT22;4998;51.024;13.828;2022-11-25T00:23:53;9.50;99.90
9919;DHT22;4998;51.024;13.828;2022-11-25T00:26:21;9.50;99.90
9919;DHT22;4998;51.024;13.828;2022-11-25T00:28:49;9.50;99.90
9919;DHT22;4998;51.024;13.828;2022-11-25T00:31:18;9.50;99.90
9919;DHT22;4998;51.024;13.828;2022-11-25T00:33:46;9.50;99.90
9919;DHT22;4998;51.024;13.828;2022-11-25T00:36:15;9.50;99.90
9919;DHT22;4998;51.024;13.828;2022-11-25T00:38:43;9.50;99.90
9919;DHT22;4998;51.024;13.828;2022-11-25T00:41:11;9.50;99.90
9919;DHT22;4998;51.024;13.828;2022-11-25T00:43:57;9.50;99.90
9919;DHT22;4998;51.024;13.828;2022-11-25T00:46:42;9.50;99.90
9919;DHT22;4998;51.024;13.828;2022-11-25T00:49:09;9.60;99.90
9919;DHT22;4998;51.024;13.828;2022-11-25T00:51:36;9.60;99.90
9919;DHT22;4998;51.024;13.828;2022-11-25T00:54:03;9.60;99.90
9919;DHT22;4998;51.024;13.828;2022-11-25T00:56:30;9.60;99.90
9919;DHT22;4998;51.024;13.828;2022-11-25T00:58:59;9.60;99.90
9919;DHT22;4998;51.024;13.828;2022-11-25T01:01:26;9.60;99.90
9919;DHT22;4998;51.024;13.828;2022-11-25T01:03:53;9.60;99.90
9919;DHT22;4998;51.024;13.828;2022-11-25T01:06:20;9.60;99.90
9919;DHT22;4998;51.024;13.828;2022-11-25T01:08:47;9.60;99.90
9919;DHT22;4998;51.024;13.828;2022-11-25T01:11:16;9.70;99.90
9919;DHT22;4998;51.024;13.828;2022-11-25T01:13:43;9.70;99.90
9919;DHT22;4998;51.024;13.828;2022-11-25T01:16:13;9.70;99.90
9919;DHT22;4998;51.024;13.828;2022-11-25T01:18:40;9.70;99.90
9919;DHT22;4998;51.024;13.828;2022-11-25T01:21:08;9.70;99.90
9919;DHT22;4998;51.024;13.828;2022-11-25T01:23:37;9.60;99.90
9919;DHT22;4998;51.024;13.828;2022-11-25T01:26:06;9.70;99.90
9919;DHT22;4998;51.024;13.828;2022-11-25T01:28:33;9.60;99.90
9919;DHT22;4998;51.024;13.828;2022-11-25T01:31:01;9.60;99.90
9919;DHT22;4998;51.024;13.828;2022-11-25T01:33:30;9.60;99.90
9919;DHT22;4998;51.024;13.828;2022-11-25T01:36:00;9.60;99.90
9919;DHT22;4998;51.024;13.828;2022-11-25T01:38:27;9.50;99.90
9919;DHT22;4998;51.024;13.828;2022-11-25T01:40:55;9.50;99.90
9919;DHT22;4998;51.024;13.828;2022-11-25T01:43:22;9.40;99.80
9919;DHT22;4998;51.024;13.828;2022-11-25T01:45:49;9.40;99.80
9919;DHT22;4998;51.024;13.828;2022-11-25T01:48:19;9.30;99.80
9919;DHT22;4998;51.024;13.828;2022-11-25T01:50:49;9.30;99.80
9919;DHT22;4998;51.024;13.828;2022-11-25T01:53:18;9.30;99.70
9919;DHT22;4998;51.024;13.828;2022-11-25T01:55:49;9.20;99.70
9919;DHT22;4998;51.024;13.828;2022-11-25T01:58:21;9.20;99.70
9919;DHT22;4998;51.024;13.828;2022-11-25T02:00:50;9.10;99.70
9919;DHT22;4998;51.024;13.828;2022-11-25T02:03:19;9.10;99.70
9919;DHT22;4998;51.024;13.828;2022-11-25T02:05:53;9.00;99.80
9919;DHT22;4998;51.024;13.828;2022-11-25T02:08:22;9.00;99.80
9919;DHT22;4998;51.024;13.828;2022-11-25T02:10:51;9.00;99.90
9919;DHT22;4998;51.024;13.828;2022-11-25T02:13:19;9.00;99.90
9919;DHT22;4998;51.024;13.828;2022-11-25T02:15:46;9.00;99.90
9919;DHT22;4998;51.024;13.828;2022-11-25T02:18:13;8.90;99.90
9919;DHT22;4998;51.024;13.828;2022-11-25T02:20:41;8.90;99.90
9919;DHT22;4998;51.024;13.828;2022-11-25T02:23:15;8.90;99.90
9919;DHT22;4998;51.024;13.828;2022-11-25T02:25:45;8.90;99.90
9919;DHT22;4998;51.024;13.828;2022-11-25T02:28:16;8.90;99.90
9919;DHT22;4998;51.024;13.828;2022-11-25T02:30:44;9.00;99.90
9919;DHT22;4998;51.024;13.828;2022-11-25T02:33:12;8.90;99.90
9919;DHT22;4998;51.024;13.828;2022-11-25T02:35:40;9.00;99.90
9919;DHT22;4998;51.024;13.828;2022-11-25T02:38:10;9.00;99.90
9919;DHT22;4998;51.024;13.828;2022-11-25T02:40:44;9.00;99.90
9919;DHT22;4998;51.024;13.828;2022-11-25T02:43:12;9.00;99.90
9919;DHT22;4998;51.024;13.828;2022-11-25T02:45:54;9.00;99.90
9919;DHT22;4998;51.024;13.828;2022-11-25T02:48:23;9.00;99.90
9919;DHT22;4998;51.024;13.828;2022-11-25T02:50:50;9.10;99.90
9919;DHT22;4998;51.024;13.828;2022-11-25T02:53:17;9.10;99.90
9919;DHT22;4998;51.024;13.828;2022-11-25T02:55:46;9.10;99.90
9919;DHT22;4998;51.024;13.828;2022-11-25T02:58:13;9.10;99.90
9919;DHT22;4998;51.024;13.828;2022-11-25T03:00:41;9.10;99.90
9919;DHT22;4998;51.024;13.828;2022-11-25T03:03:08;9.10;99.90
9919;DHT22;4998;51.024;13.828;2022-11-25T03:05:36;9.10;99.90
9919;DHT22;4998;51.024;13.828;2022-11-25T03:08:03;9.10;99.90
9919;DHT22;4998;51.024;13.828;2022-11-25T03:10:31;9.10;99.90
9919;DHT22;4998;51.024;13.828;2022-11-25T03:12:59;9.20;99.90
9919;DHT22;4998;51.024;13.828;2022-11-25T03:15:26;9.20;99.90
9919;DHT22;4998;51.024;13.828;2022-11-25T03:17:54;9.20;99.90
9919;DHT22;4998;51.024;13.828;2022-11-25T03:20:21;9.20;99.90
9919;DHT22;4998;51.024;13.828;2022-11-25T03:22:48;9.20;99.90
9919;DHT22;4998;51.024;13.828;2022-11-25T03:25:16;9.20;99.90
9919;DHT22;4998;51.024;13.828;2022-11-25T03:27:43;9.20;99.90
9919;DHT22;4998;51.024;13.828;2022-11-25T03:30:15;9.20;99.90
9919;DHT22;4998;51.024;13.828;2022-11-25T03:32:42;9.20;99.90
9919;DHT22;4998;51.024;13.828;2022-11-25T03:35:09;9.20;99.90
9919;DHT22;4998;51.024;13.828;2022-11-25T03:37:36;9.20;99.90
9919;DHT22;4998;51.024;13.828;2022-11-25T03:40:05;9.20;99.90
9919;DHT22;4998;51.024;13.828;2022-11-25T03:42:32;9.20;99.90
9919;DHT22;4998;51.024;13.828;2022-11-25T03:45:00;9.20;99.90
9919;DHT22;4998;51.024;13.828;2022-11-25T03:47:28;9.20;99.90
9919;DHT22;4998;51.024;13.828;2022-11-25T03:49:55;9.30;99.90
9919;DHT22;4998;51.024;13.828;2022-11-25T03:52:22;9.20;99.90
9919;DHT22;4998;51.024;13.828;2022-11-25T03:54:50;9.20;99.90
9919;DHT22;4998;51.024;13.828;2022-11-25T03:57:17;9.30;99.90
9919;DHT22;4998;51.024;13.828;2022-11-25T03:59:44;9.30;99.90
9919;DHT22;4998;51.024;13.828;2022-11-25T04:02:11;9.30;99.90
9919;DHT22;4998;51.024;13.828;2022-11-25T04:04:40;9.30;99.90
9919;DHT22;4998;51.024;13.828;2022-11-25T04:07:07;9.30;99.90
9919;DHT22;4998;51.024;13.828;2022-11-25T04:09:34;9.30;99.90
9919;DHT22;4998;51.024;13.828;2022-11-25T04:12:01;9.30;99.90
9919;DHT22;4998;51.024;13.828;2022-11-25T04:14:46;9.30;99.90
9919;DHT22;4998;51.024;13.828;2022-11-25T04:17:13;9.30;99.90
9919;DHT22;4998;51.024;13.828;2022-11-25T04:19:41;9.30;99.90
9919;DHT22;4998;51.024;13.828;2022-11-25T04:22:08;9.30;99.90
9919;DHT22;4998;51.024;13.828;2022-11-25T04:24:35;9.30;99.90
9919;DHT22;4998;51.024;13.828;2022-11-25T04:27:02;9.40;99.90
9919;DHT22;4998;51.024;13.828;2022-11-25T04:29:29;9.30;99.90
9919;DHT22;4998;51.024;13.828;2022-11-25T04:31:56;9.40;99.90
9919;DHT22;4998;51.024;13.828;2022-11-25T04:34:24;9.40;99.90
9919;DHT22;4998;51.024;13.828;2022-11-25T04:36:52;9.40;99.90
9919;DHT22;4998;51.024;13.828;2022-11-25T04:39:19;9.40;99.90
9919;DHT22;4998;51.024;13.828;2022-11-25T04:41:46;9.40;99.90
9919;DHT22;4998;51.024;13.828;2022-11-25T04:44:13;9.40;99.90
9919;DHT22;4998;51.024;13.828;2022-11-25T04:46:41;9.40;99.90
9919;DHT22;4998;51.024;13.828;2022-11-25T04:49:10;9.40;99.90
9919;DHT22;4998;51.024;13.828;2022-11-25T04:51:37;9.40;99.90
9919;DHT22;4998;51.024;13.828;2022-11-25T04:54:05;9.50;99.90
9919;DHT22;4998;51.024;13.828;2022-11-25T04:56:32;9.50;99.90
9919;DHT22;4998;51.024;13.828;2022-11-25T04:58:59;9.50;99.90
9919;DHT22;4998;51.024;13.828;2022-11-25T05:01:43;9.40;99.90
9919;DHT22;4998;51.024;13.828;2022-11-25T05:04:10;9.50;99.90
9919;DHT22;4998;51.024;13.828;2022-11-25T05:06:37;9.50;99.90
9919;DHT22;4998;51.024;13.828;2022-11-25T05:09:06;9.50;99.90
9919;DHT22;4998;51.024;13.828;2022-11-25T05:11:35;9.50;99.90
9919;DHT22;4998;51.024;13.828;2022-11-25T05:14:02;9.50;99.90
9919;DHT22;4998;51.024;13.828;2022-11-25T05:16:29;9.50;99.90
9919;DHT22;4998;51.024;13.828;2022-11-25T05:18:56;9.50;99.90
9919;DHT22;4998;51.024;13.828;2022-11-25T05:21:23;9.50;99.90
9919;DHT22;4998;51.024;13.828;2022-11-25T05:23:50;9.50;99.90
9919;DHT22;4998;51.024;13.828;2022-11-25T05:26:19;9.50;99.90
9919;DHT22;4998;51.024;13.828;2022-11-25T05:28:46;9.50;99.90
9919;DHT22;4998;51.024;13.828;2022-11-25T05:31:13;9.50;99.90
9919;DHT22;4998;51.024;13.828;2022-11-25T05:33:40;9.50;99.90
9919;DHT22;4998;51.024;13.828;2022-11-25T05:36:07;9.50;99.90
9919;DHT22;4998;51.024;13.828;2022-11-25T05:38:35;9.40;99.90
9919;DHT22;4998;51.024;13.828;2022-11-25T05:41:04;9.40;99.90
9919;DHT22;4998;51.024;13.828;2022-11-25T05:43:34;9.40;99.90
9919;DHT22;4998;51.024;13.828;2022-11-25T05:46:04;9.40;99.90
9919;DHT22;4998;51.024;13.828;2022-11-25T05:48:31;9.30;99.80
9919;DHT22;4998;51.024;13.828;2022-11-25T05:50:59;9.30;99.70
9919;DHT22;4998;51.024;13.828;2022-11-25T05:53:26;9.30;99.70
9919;DHT22;4998;51.024;13.828;2022-11-25T05:55:54;9.20;99.70
9919;DHT22;4998;51.024;13.828;2022-11-25T05:58:22;9.20;99.80
9919;DHT22;4998;51.024;13.828;2022-11-25T06:00:50;9.10;99.80
9919;DHT22;4998;51.024;13.828;2022-11-25T06:03:18;9.10;99.70
9919;DHT22;4998;51.024;13.828;2022-11-25T06:05:45;9.10;99.50
9919;DHT22;4998;51.024;13.828;2022-11-25T06:08:12;9.00;99.40
9919;DHT22;4998;51.024;13.828;2022-11-25T06:10:39;9.00;99.30
9919;DHT22;4998;51.024;13.828;2022-11-25T06:13:06;8.90;99.20
9919;DHT22;4998;51.024;13.828;2022-11-25T06:15:34;8.90;99.20
9919;DHT22;4998;51.024;13.828;2022-11-25T06:18:02;8.80;99.10
9919;DHT22;4998;51.024;13.828;2022-11-25T06:20:30;8.70;99.10
9919;DHT22;4998;51.024;13.828;2022-11-25T06:22:57;8.70;99.10
9919;DHT22;4998;51.024;13.828;2022-11-25T06:25:24;8.60;99.20
9919;DHT22;4998;51.024;13.828;2022-11-25T06:27:51;8.60;99.20
9919;DHT22;4998;51.024;13.828;2022-11-25T06:30:19;8.60;99.20
9919;DHT22;4998;51.024;13.828;2022-11-25T06:32:46;8.50;99.20
9919;DHT22;4998;51.024;13.828;2022-11-25T06:35:15;8.50;99.20
9919;DHT22;4998;51.024;13.828;2022-11-25T06:37:42;8.40;99.10
9919;DHT22;4998;51.024;13.828;2022-11-25T06:40:09;8.40;99.10
9919;DHT22;4998;51.024;13.828;2022-11-25T06:42:37;8.40;99.20
9919;DHT22;4998;51.024;13.828;2022-11-25T06:45:05;8.30;99.10
9919;DHT22;4998;51.024;13.828;2022-11-25T06:47:32;8.30;99.10
9919;DHT22;4998;51.024;13.828;2022-11-25T06:49:59;8.30;99.00
9919;DHT22;4998;51.024;13.828;2022-11-25T06:52:29;8.20;99.00
9919;DHT22;4998;51.024;13.828;2022-11-25T06:54:56;8.20;99.10
9919;DHT22;4998;51.024;13.828;2022-11-25T06:57:23;8.20;99.10
9919;DHT22;4998;51.024;13.828;2022-11-25T06:59:50;8.10;99.10
9919;DHT22;4998;51.024;13.828;2022-11-25T07:02:17;8.10;99.10
9919;DHT22;4998;51.024;13.828;2022-11-25T07:04:44;8.10;99.10
9919;DHT22;4998;51.024;13.828;2022-11-25T07:07:11;8.10;99.20
9919;DHT22;4998;51.024;13.828;2022-11-25T07:09:39;8.00;99.10
9919;DHT22;4998;51.024;13.828;2022-11-25T07:12:06;8.00;99.10
9919;DHT22;4998;51.024;13.828;2022-11-25T07:14:33;8.00;99.10
9919;DHT22;4998;51.024;13.828;2022-11-25T07:17:00;7.90;99.10
9919;DHT22;4998;51.024;13.828;2022-11-25T07:19:27;7.90;99.20
9919;DHT22;4998;51.024;13.828;2022-11-25T07:21:58;7.90;99.30
9919;DHT22;4998;51.024;13.828;2022-11-25T07:24:25;7.90;99.30
9919;DHT22;4998;51.024;13.828;2022-11-25T07:26:53;7.80;99.30
9919;DHT22;4998;51.024;13.828;2022-11-25T07:29:20;7.80;99.30
9919;DHT22;4998;51.024;13.828;2022-11-25T07:31:47;7.80;99.40
9919;DHT22;4998;51.024;13.828;2022-11-25T07:34:16;7.80;99.40
9919;DHT22;4998;51.024;13.828;2022-11-25T07:36:44;7.80;99.50
9919;DHT22;4998;51.024;13.828;2022-11-25T07:39:13;7.80;99.50
9919;DHT22;4998;51.024;13.828;2022-11-25T07:41:41;7.80;99.60
9919;DHT22;4998;51.024;13.828;2022-11-25T07:44:10;7.80;99.60
9919;DHT22;4998;51.024;13.828;2022-11-25T07:46:40;7.80;99.60
9919;DHT22;4998;51.024;13.828;2022-11-25T07:49:09;7.80;99.70
9919;DHT22;4998;51.024;13.828;2022-11-25T07:51:38;7.80;99.70
9919;DHT22;4998;51.024;13.828;2022-11-25T07:54:07;7.80;99.80
9919;DHT22;4998;51.024;13.828;2022-11-25T07:56:36;7.80;99.90
9919;DHT22;4998;51.024;13.828;2022-11-25T07:59:04;7.80;99.90
9919;DHT22;4998;51.024;13.828;2022-11-25T08:01:33;7.80;99.90
9919;DHT22;4998;51.024;13.828;2022-11-25T08:04:00;7.80;99.90
9919;DHT22;4998;51.024;13.828;2022-11-25T08:06:27;7.80;99.90
9919;DHT22;4998;51.024;13.828;2022-11-25T08:08:56;7.90;99.90
9919;DHT22;4998;51.024;13.828;2022-11-25T08:11:26;7.90;99.90
9919;DHT22;4998;51.024;13.828;2022-11-25T08:13:54;7.90;99.90
9919;DHT22;4998;51.024;13.828;2022-11-25T08:16:25;7.90;99.90
9919;DHT22;4998;51.024;13.828;2022-11-25T08:18:54;8.00;99.90
9919;DHT22;4998;51.024;13.828;2022-11-25T08:21:22;8.00;99.90
9919;DHT22;4998;51.024;13.828;2022-11-25T08:23:49;8.00;99.90
9919;DHT22;4998;51.024;13.828;2022-11-25T08:26:18;8.00;99.90
9919;DHT22;4998;51.024;13.828;2022-11-25T08:28:46;8.00;99.90
9919;DHT22;4998;51.024;13.828;2022-11-25T08:31:15;8.10;99.90
9919;DHT22;4998;51.024;13.828;2022-11-25T08:33:43;8.10;99.90
9919;DHT22;4998;51.024;13.828;2022-11-25T08:36:12;8.10;99.90
9919;DHT22;4998;51.024;13.828;2022-11-25T08:38:40;8.10;99.90
9919;DHT22;4998;51.024;13.828;2022-11-25T08:41:11;8.10;99.90
9919;DHT22;4998;51.024;13.828;2022-11-25T08:43:39;8.10;99.90
9919;DHT22;4998;51.024;13.828;2022-11-25T08:46:08;8.20;99.90
9919;DHT22;4998;51.024;13.828;2022-11-25T08:48:35;8.20;99.90
9919;DHT22;4998;51.024;13.828;2022-11-25T08:51:07;8.20;99.90
9919;DHT22;4998;51.024;13.828;2022-11-25T08:53:36;8.20;99.90
9919;DHT22;4998;51.024;13.828;2022-11-25T08:56:04;8.20;99.90
9919;DHT22;4998;51.024;13.828;2022-11-25T08:58:32;8.20;99.90
9919;DHT22;4998;51.024;13.828;2022-11-25T09:00:59;8.30;99.90
9919;DHT22;4998;51.024;13.828;2022-11-25T09:03:27;8.30;99.90
9919;DHT22;4998;51.024;13.828;2022-11-25T09:05:57;8.30;99.90
9919;DHT22;4998;51.024;13.828;2022-11-25T09:08:25;8.30;99.90
9919;DHT22;4998;51.024;13.828;2022-11-25T09:10:54;8.30;99.90
9919;DHT22;4998;51.024;13.828;2022-11-25T09:13:21;8.30;99.90
9919;DHT22;4998;51.024;13.828;2022-11-25T09:15:48;8.40;99.90
9919;DHT22;4998;51.024;13.828;2022-11-25T09:18:15;8.30;99.90
9919;DHT22;4998;51.024;13.828;2022-11-25T09:20:45;8.40;99.90
9919;DHT22;4998;51.024;13.828;2022-11-25T09:23:12;8.40;99.90
9919;DHT22;4998;51.024;13.828;2022-11-25T09:25:39;8.40;99.90
9919;DHT22;4998;51.024;13.828;2022-11-25T09:28:09;8.40;99.90
9919;DHT22;4998;51.024;13.828;2022-11-25T09:30:36;8.50;99.90
9919;DHT22;4998;51.024;13.828;2022-11-25T09:33:04;8.50;99.90
9919;DHT22;4998;51.024;13.828;2022-11-25T09:35:31;8.60;99.90
9919;DHT22;4998;51.024;13.828;2022-11-25T09:37:58;8.60;99.90
9919;DHT22;4998;51.024;13.828;2022-11-25T09:40:31;8.60;99.90
9919;DHT22;4998;51.024;13.828;2022-11-25T09:43:06;8.70;99.90
9919;DHT22;4998;51.024;13.828;2022-11-25T09:46:01;8.70;99.90
9919;DHT22;4998;51.024;13.828;2022-11-25T09:48:58;8.70;99.90
9919;DHT22;4998;51.024;13.828;2022-11-25T09:51:31;8.80;99.90
9919;DHT22;4998;51.024;13.828;2022-11-25T09:54:07;8.80;99.90
9919;DHT22;4998;51.024;13.828;2022-11-25T09:56:40;8.80;99.90
9919;DHT22;4998;51.024;13.828;2022-11-25T09:59:14;8.90;99.90
9919;DHT22;4998;51.024;13.828;2022-11-25T10:01:48;8.90;99.90
9919;DHT22;4998;51.024;13.828;2022-11-25T10:04:21;8.90;99.90
9919;DHT22;4998;51.024;13.828;2022-11-25T10:06:54;9.00;99.90
9919;DHT22;4998;51.024;13.828;2022-11-25T10:09:24;9.00;99.90
9919;DHT22;4998;51.024;13.828;2022-11-25T10:11:53;9.00;99.90
9919;DHT22;4998;51.024;13.828;2022-11-25T10:14:28;9.10;99.90
9919;DHT22;4998;51.024;13.828;2022-11-25T10:17:02;9.20;99.90
9919;DHT22;4998;51.024;13.828;2022-11-25T10:19:38;9.20;99.90
9919;DHT22;4998;51.024;13.828;2022-11-25T10:22:16;9.30;99.90
9919;DHT22;4998;51.024;13.828;2022-11-25T10:24:46;9.40;99.90
9919;DHT22;4998;51.024;13.828;2022-11-25T10:27:17;9.40;99.90
9919;DHT22;4998;51.024;13.828;2022-11-25T10:29:50;9.50;99.90
9919;DHT22;4998;51.024;13.828;2022-11-25T10:32:24;9.50;99.90
9919;DHT22;4998;51.024;13.828;2022-11-25T10:34:57;9.60;99.90
9919;DHT22;4998;51.024;13.828;2022-11-25T10:37:27;9.70;99.90
9919;DHT22;4998;51.024;13.828;2022-11-25T10:39:55;9.70;99.90
9919;DHT22;4998;51.024;13.828;2022-11-25T10:42:24;9.80;99.90
9919;DHT22;4998;51.024;13.828;2022-11-25T10:44:52;9.80;99.90
9919;DHT22;4998;51.024;13.828;2022-11-25T10:47:33;9.90;99.90
9919;DHT22;4998;51.024;13.828;2022-11-25T10:50:13;9.90;99.90
9919;DHT22;4998;51.024;13.828;2022-11-25T10:52:47;10.00;99.90
9919;DHT22;4998;51.024;13.828;2022-11-25T10:55:17;10.10;99.90
9919;DHT22;4998;51.024;13.828;2022-11-25T10:57:45;10.10;99.90
9919;DHT22;4998;51.024;13.828;2022-11-25T11:00:31;10.20;99.90
9919;DHT22;4998;51.024;13.828;2022-11-25T11:03:12;10.20;99.90
9919;DHT22;4998;51.024;13.828;2022-11-25T11:05:44;10.30;99.90
9919;DHT22;4998;51.024;13.828;2022-11-25T11:08:18;10.40;99.90
9919;DHT22;4998;51.024;13.828;2022-11-25T11:10:45;10.50;99.90
9919;DHT22;4998;51.024;13.828;2022-11-25T11:13:22;10.50;99.90
9919;DHT22;4998;51.024;13.828;2022-11-25T11:15:51;10.60;99.90
9919;DHT22;4998;51.024;13.828;2022-11-25T11:18:27;10.60;99.90
9919;DHT22;4998;51.024;13.828;2022-11-25T11:20:56;10.70;99.90
9919;DHT22;4998;51.024;13.828;2022-11-25T11:23:24;10.70;99.90
9919;DHT22;4998;51.024;13.828;2022-11-25T11:26:00;10.80;99.90
9919;DHT22;4998;51.024;13.828;2022-11-25T11:28:30;10.80;99.90
9919;DHT22;4998;51.024;13.828;2022-11-25T11:31:05;10.90;99.90
9919;DHT22;4998;51.024;13.828;2022-11-25T11:33:39;11.00;99.90
9919;DHT22;4998;51.024;13.828;2022-11-25T11:36:19;11.00;99.90
9919;DHT22;4998;51.024;13.828;2022-11-25T11:38:53;11.10;99.90
9919;DHT22;4998;51.024;13.828;2022-11-25T11:41:33;11.10;99.90
9919;DHT22;4998;51.024;13.828;2022-11-25T11:44:08;11.20;99.90
9919;DHT22;4998;51.024;13.828;2022-11-25T11:46:56;11.30;99.90
9919;DHT22;4998;51.024;13.828;2022-11-25T11:49:55;11.30;99.90
9919;DHT22;4998;51.024;13.828;2022-11-25T11:52:32;11.40;99.90
9919;DHT22;4998;51.024;13.828;2022-11-25T11:55:16;11.50;99.90
9919;DHT22;4998;51.024;13.828;2022-11-25T11:57:52;11.50;99.70
9919;DHT22;4998;51.024;13.828;2022-11-25T12:00:24;11.60;99.70
9919;DHT22;4998;51.024;13.828;2022-11-25T12:02:58;11.70;99.80
9919;DHT22;4998;51.024;13.828;2022-11-25T12:05:30;11.70;99.70
9919;DHT22;4998;51.024;13.828;2022-11-25T12:08:05;11.80;99.50
9919;DHT22;4998;51.024;13.828;2022-11-25T12:10:37;11.80;99.30
9919;DHT22;4998;51.024;13.828;2022-11-25T12:13:13;11.90;99.30
9919;DHT22;4998;51.024;13.828;2022-11-25T12:15:46;11.90;99.20
9919;DHT22;4998;51.024;13.828;2022-11-25T12:18:28;12.00;99.10
9919;DHT22;4998;51.024;13.828;2022-11-25T12:21:03;12.00;99.00
9919;DHT22;4998;51.024;13.828;2022-11-25T12:23:39;12.00;98.90
9919;DHT22;4998;51.024;13.828;2022-11-25T12:26:12;12.10;98.80
9919;DHT22;4998;51.024;13.828;2022-11-25T12:28:44;12.10;98.80
9919;DHT22;4998;51.024;13.828;2022-11-25T12:31:17;12.20;98.80
9919;DHT22;4998;51.024;13.828;2022-11-25T12:33:55;12.20;98.80
9919;DHT22;4998;51.024;13.828;2022-11-25T12:36:31;12.20;98.70
9919;DHT22;4998;51.024;13.828;2022-11-25T12:39:02;12.30;98.70
9919;DHT22;4998;51.024;13.828;2022-11-25T12:41:36;12.30;98.70
9919;DHT22;4998;51.024;13.828;2022-11-25T12:44:11;12.30;98.50
9919;DHT22;4998;51.024;13.828;2022-11-25T12:46:43;12.30;98.50
9919;DHT22;4998;51.024;13.828;2022-11-25T12:49:16;12.30;98.50
9919;DHT22;4998;51.024;13.828;2022-11-25T12:51:58;12.40;98.40
9919;DHT22;4998;51.024;13.828;2022-11-25T12:57:45;12.40;98.40
9919;DHT22;4998;51.024;13.828;2022-11-25T13:00:18;12.50;98.30
9919;DHT22;4998;51.024;13.828;2022-11-25T13:06:21;12.50;98.10
9919;DHT22;4998;51.024;13.828;2022-11-25T13:08:56;12.50;98.10
9919;DHT22;4998;51.024;13.828;2022-11-25T13:11:58;12.60;98.00
9919;DHT22;4998;51.024;13.828;2022-11-25T13:14:38;12.60;97.90
9919;DHT22;4998;51.024;13.828;2022-11-25T13:17:18;12.60;97.80
9919;DHT22;4998;51.024;13.828;2022-11-25T13:19:45;12.60;97.70
9919;DHT22;4998;51.024;13.828;2022-11-25T13:22:25;12.60;97.60
9919;DHT22;4998;51.024;13.828;2022-11-25T13:24:56;12.60;97.50
9919;DHT22;4998;51.024;13.828;2022-11-25T13:27:31;12.60;97.50
9919;DHT22;4998;51.024;13.828;2022-11-25T13:30:01;12.60;97.40
9919;DHT22;4998;51.024;13.828;2022-11-25T13:32:34;12.60;97.40
9919;DHT22;4998;51.024;13.828;2022-11-25T13:35:46;12.60;97.20
9919;DHT22;4998;51.024;13.828;2022-11-25T13:38:37;12.60;97.10
9919;DHT22;4998;51.024;13.828;2022-11-25T13:41:42;12.60;96.90
9919;DHT22;4998;51.024;13.828;2022-11-25T13:44:22;12.60;96.90
9919;DHT22;4998;51.024;13.828;2022-11-25T13:46:53;12.60;96.70
9919;DHT22;4998;51.024;13.828;2022-11-25T13:49:27;12.50;96.70
9919;DHT22;4998;51.024;13.828;2022-11-25T13:51:56;12.50;96.40
9919;DHT22;4998;51.024;13.828;2022-11-25T13:54:30;12.50;96.40
9919;DHT22;4998;51.024;13.828;2022-11-25T13:57:33;12.50;96.40
9919;DHT22;4998;51.024;13.828;2022-11-25T14:00:04;12.50;96.30
9919;DHT22;4998;51.024;13.828;2022-11-25T14:02:37;12.40;96.20
9919;DHT22;4998;51.024;13.828;2022-11-25T14:05:39;12.30;96.10
9919;DHT22;4998;51.024;13.828;2022-11-25T14:08:16;12.30;96.10
9919;DHT22;4998;51.024;13.828;2022-11-25T14:10:52;12.20;96.00
9919;DHT22;4998;51.024;13.828;2022-11-25T14:13:37;12.20;96.00
9919;DHT22;4998;51.024;13.828;2022-11-25T14:16:15;12.20;95.80
9919;DHT22;4998;51.024;13.828;2022-11-25T14:19:09;12.10;95.70
9919;DHT22;4998;51.024;13.828;2022-11-25T14:22:02;12.00;95.70
9919;DHT22;4998;51.024;13.828;2022-11-25T14:24:39;12.00;95.60
9919;DHT22;4998;51.024;13.828;2022-11-25T14:27:13;11.90;95.50
9919;DHT22;4998;51.024;13.828;2022-11-25T14:29:45;11.90;95.40
9919;DHT22;4998;51.024;13.828;2022-11-25T14:32:18;11.80;95.30
9919;DHT22;4998;51.024;13.828;2022-11-25T14:34:48;11.80;95.30
9919;DHT22;4998;51.024;13.828;2022-11-25T14:37:24;11.70;95.20
9919;DHT22;4998;51.024;13.828;2022-11-25T14:39:57;11.60;95.20
9919;DHT22;4998;51.024;13.828;2022-11-25T14:42:30;11.60;95.20
9919;DHT22;4998;51.024;13.828;2022-11-25T14:45:00;11.50;95.20
9919;DHT22;4998;51.024;13.828;2022-11-25T14:47:29;11.40;95.20
9919;DHT22;4998;51.024;13.828;2022-11-25T14:49:57;11.40;95.30
9919;DHT22;4998;51.024;13.828;2022-11-25T14:52:27;11.40;95.40
9919;DHT22;4998;51.024;13.828;2022-11-25T14:54:56;11.30;95.40
9919;DHT22;4998;51.024;13.828;2022-11-25T14:57:27;11.30;95.30
9919;DHT22;4998;51.024;13.828;2022-11-25T14:59:57;11.30;95.30
9919;DHT22;4998;51.024;13.828;2022-11-25T15:02:31;11.20;95.30
9919;DHT22;4998;51.024;13.828;2022-11-25T15:05:15;11.10;95.30
9919;DHT22;4998;51.024;13.828;2022-11-25T15:07:51;11.10;95.30
9919;DHT22;4998;51.024;13.828;2022-11-25T15:10:33;11.10;95.40
9919;DHT22;4998;51.024;13.828;2022-11-25T15:13:08;11.10;95.40
9919;DHT22;4998;51.024;13.828;2022-11-25T15:15:37;11.10;95.40
9919;DHT22;4998;51.024;13.828;2022-11-25T15:18:09;11.00;95.40
9919;DHT22;4998;51.024;13.828;2022-11-25T15:20:39;11.00;95.40
9919;DHT22;4998;51.024;13.828;2022-11-25T15:23:11;11.00;95.40
9919;DHT22;4998;51.024;13.828;2022-11-25T15:25:48;10.90;95.30
9919;DHT22;4998;51.024;13.828;2022-11-25T15:28:15;10.90;95.30
9919;DHT22;4998;51.024;13.828;2022-11-25T15:30:54;10.90;95.30
9919;DHT22;4998;51.024;13.828;2022-11-25T15:33:23;10.80;95.20
9919;DHT22;4998;51.024;13.828;2022-11-25T15:35:52;10.90;95.30
9919;DHT22;4998;51.024;13.828;2022-11-25T15:38:34;10.80;95.30
9919;DHT22;4998;51.024;13.828;2022-11-25T15:41:02;10.80;95.30
9919;DHT22;4998;51.024;13.828;2022-11-25T15:43:30;10.80;95.30
9919;DHT22;4998;51.024;13.828;2022-11-25T15:46:00;10.70;95.30
9919;DHT22;4998;51.024;13.828;2022-11-25T15:48:32;10.70;95.30
9919;DHT22;4998;51.024;13.828;2022-11-25T15:51:02;10.70;95.40
9919;DHT22;4998;51.024;13.828;2022-11-25T15:53:33;10.60;95.30
9919;DHT22;4998;51.024;13.828;2022-11-25T15:56:03;10.70;95.50
9919;DHT22;4998;51.024;13.828;2022-11-25T15:58:31;10.60;95.80
9919;DHT22;4998;51.024;13.828;2022-11-25T16:01:03;10.60;95.40
9919;DHT22;4998;51.024;13.828;2022-11-25T16:03:32;10.60;95.50
9919;DHT22;4998;51.024;13.828;2022-11-25T16:06:01;10.60;95.50
9919;DHT22;4998;51.024;13.828;2022-11-25T16:08:31;10.60;95.50
9919;DHT22;4998;51.024;13.828;2022-11-25T16:11:09;10.60;95.50
9919;DHT22;4998;51.024;13.828;2022-11-25T16:13:37;10.60;95.50
9919;DHT22;4998;51.024;13.828;2022-11-25T16:16:17;10.60;95.50
9919;DHT22;4998;51.024;13.828;2022-11-25T16:21:50;10.60;95.90
9919;DHT22;4998;51.024;13.828;2022-11-25T16:24:46;10.60;95.50
9919;DHT22;4998;51.024;13.828;2022-11-25T16:27:20;10.60;95.50
9919;DHT22;4998;51.024;13.828;2022-11-25T16:29:50;10.60;95.50
9919;DHT22;4998;51.024;13.828;2022-11-25T16:32:19;10.60;95.50